Aeroporto :
LOGIN :

Iscrizione | Disclaimer

   EN    FR    IT 

 










Sommario :    VFR   VFR Marginale   IFR   IFR Intensivo   IFR Molto Intensivo
Visibilità : 
Base nubi : 
>= 8 km
>= 3000ft
5 / 8 km
1000 / 3000 ft
1500m / 5 km
500 / 1000 ft
800 / 1500m
200 / 500 ft
< 800m
< 200 ft
Simboli :   Temporali  Nebbia  Neve Forte  Precipitazioni Forti  Vento > 20 kt
SIGMETs :   Varie  Temporali  Ghiacco  Turbolenza  Onda orograficha  Ceneri Vulcaniche






- Altitudine del aeroporto : 308 ft
- Codice IATA : ATH


LGAV - Eleftherios Venizelos Int.

ULTIMO METAR :
  • 301350Z 29002KT 9999 FEW018TCU BKN025 16/10 Q1014 NOSIG

METARs OBSOLETI :
  • 301320Z 29004KT 260V360 9999 FEW018TCU BKN025 16/11 Q1014 NOSIG
  • 301250Z 02007KT 9999 FEW018TCU BKN025 17/11 Q1013 NOSIG
  • 301220Z 05008KT 010V070 9999 FEW018TCU BKN025 17/11 Q1014 NOSIG
  • 301150Z 05007KT 9999 FEW018TCU BKN025 17/11 Q1014 NOSIG
  • 301120Z 07006KT 9999 FEW018TCU BKN025 17/11 Q1014 NOSIG

TAF TAF LGAV
Valido dal 30 a 12 ore il 01 a 12 ore UTC


301100Z 3012/0112 05005KT 9999 FEW018TCU SCT025 BKN070
PROB40
TEMPO 3012/3015 5000 RA SCT015 FEW018TCU BKN025
BECMG 3013/3015 01010G20KT
TEMPO 3021/0109 01015G25KT



MetMap, La meteo Aeronautica in un colpo d'occhio ! - Copyright ORBIFLY Dicembre 2007 - Disclaimer

ORBIFLY MET'MAP TEAM :

Programmazione e sviluppo : Alexandra Zaïnal
Concezione : Baudouin d'Aumeries
Aiuto per la programmazione : Marc-Olivier Méhu
Supporto tecnico e logistico : Manuel Goepfert
Aiuto per la traduzione : Arnaldo La Scala

Contatto : metmap@orbifly.com




FONTI E CREDITI :

   NOAA